Time;durP1;ratioP1;P1;durP2;ratioP2;P2;SDS_P1;SDS_P2;PMS_P1;PMS_P2;Temp;Humidity;BMP_temperature;BMP_pressure;BME280_temperature;BME280_humidity;BME280_pressure;Samples;Min_cycle;Max_cycle;Signal;HPM_P1;HPM_P2
2021/12/18 00:01:03;;;;;;;3.60;2.72;;;;;;;10.78;54.38;103381.56;4953801;28;99354;-76
2021/12/18 00:03:29;;;;;;;4.65;2.97;;;;;;;11.06;53.67;103379.94;4960295;28;101466;-77
2021/12/18 00:05:58;;;;;;;6.55;3.28;;;;;;;11.30;53.02;103381.78;4955259;28;96812;-76
2021/12/18 00:08:24;;;;;;;5.22;3.17;;;;;;;10.93;53.74;103375.47;4954753;28;97114;-76
2021/12/18 00:10:52;;;;;;;3.95;2.90;;;;;;;11.08;53.77;103369.38;4953950;28;98961;-75
2021/12/18 00:13:18;;;;;;;4.35;2.88;;;;;;;11.30;53.22;103379.16;4954005;28;98994;-76
2021/12/18 00:15:45;;;;;;;6.40;2.80;;;;;;;10.59;55.15;103377.06;4950994;28;98406;-78
2021/12/18 00:18:12;;;;;;;5.25;3.13;;;;;;;11.08;53.96;103369.38;4954675;28;97193;-77
2021/12/18 00:20:39;;;;;;;5.63;2.85;;;;;;;11.47;52.80;103374.81;4958479;28;99525;-75
2021/12/18 00:23:07;;;;;;;5.78;2.92;;;;;;;11.38;52.86;103369.47;4944572;28;98729;-76
2021/12/18 00:25:34;;;;;;;4.10;3.00;;;;;;;11.38;53.18;103365.94;4953697;28;97665;-77
2021/12/18 00:28:00;;;;;;;7.78;3.67;;;;;;;11.08;54.01;103364.09;4955800;28;97031;-76
2021/12/18 00:30:27;;;;;;;3.47;2.90;;;;;;;11.36;53.76;103365.94;4953871;28;99497;-77
2021/12/18 00:32:54;;;;;;;5.38;3.42;;;;;;;11.65;52.21;103363.34;4954695;28;98813;-78
2021/12/18 00:35:20;;;;;;;4.90;3.55;;;;;;;11.51;52.91;103355.38;4968409;28;97690;-75
2021/12/18 00:37:47;;;;;;;4.82;3.03;;;;;;;11.36;52.78;103352.69;4975128;28;96810;-75
2021/12/18 00:40:21;;;;;;;6.68;3.65;;;;;;;10.47;55.97;103353.19;4971925;28;98173;-78
2021/12/18 00:42:50;;;;;;;4.22;3.20;;;;;;;10.96;54.95;103353.47;4955328;28;99262;-76
2021/12/18 00:45:19;;;;;;;5.57;3.50;;;;;;;11.22;54.06;103348.25;4954866;28;96938;-78
2021/12/18 00:47:47;;;;;;;4.38;2.80;;;;;;;10.96;54.55;103353.47;4962134;28;96832;-79
2021/12/18 00:50:17;;;;;;;6.07;3.20;;;;;;;11.40;53.65;103359.78;4956998;28;97966;-75
2021/12/18 00:52:43;;;;;;;8.32;4.50;;;;;;;11.66;52.91;103357.19;4951027;28;98834;-75
2021/12/18 00:55:10;;;;;;;5.13;3.08;;;;;;;11.32;53.55;103364.16;4954677;28;97030;-76
2021/12/18 00:57:38;;;;;;;6.13;3.47;;;;;;;11.48;53.11;103359.81;4956914;28;98145;-76
2021/12/18 01:00:08;;;;;;;5.68;3.00;;;;;;;10.97;54.06;103366.66;4958406;28;98921;-76
2021/12/18 01:02:36;;;;;;;4.68;3.10;;;;;;;11.50;53.89;103366.84;4950283;28;100119;-76
2021/12/18 01:05:03;;;;;;;5.25;3.33;;;;;;;11.46;53.77;103373.03;4957430;28;96852;-75
2021/12/18 01:07:30;;;;;;;5.10;2.97;;;;;;;11.29;54.59;103374.72;4949149;28;96738;-76
2021/12/18 01:10:04;;;;;;;10.18;6.38;;;;;;;11.33;53.83;103367.69;4956692;28;99173;-77
2021/12/18 01:12:36;;;;;;;6.65;3.40;;;;;;;11.53;53.46;103376.56;4959161;28;98781;-75
2021/12/18 01:15:15;;;;;;;3.80;2.10;;;;;;;11.52;53.05;103383.63;4954730;28;98021;-76
2021/12/18 01:23:11;;;;;;;3.88;3.08;;;;;;;11.43;53.76;103382.72;4956141;28;97022;-74
2021/12/18 01:25:37;;;;;;;6.32;3.53;;;;;;;11.49;54.38;103383.59;4951789;28;97231;-75
2021/12/18 01:28:05;;;;;;;4.18;2.80;;;;;;;11.48;54.06;103381.88;4955637;28;96878;-74
2021/12/18 01:30:33;;;;;;;4.68;2.85;;;;;;;11.18;54.30;103381.75;4953311;28;99042;-75
2021/12/18 01:32:59;;;;;;;4.30;2.97;;;;;;;11.37;54.74;103373.00;4964925;28;98964;-76
2021/12/18 01:35:26;;;;;;;4.80;2.92;;;;;;;11.36;54.43;103371.22;4969315;28;96635;-75
2021/12/18 01:37:52;;;;;;;3.85;2.15;;;;;;;11.34;55.03;103375.66;4955226;28;96825;-76
2021/12/18 01:40:21;;;;;;;5.05;2.60;;;;;;;10.65;55.81;103363.88;4973160;28;99245;-77
2021/12/18 01:45:49;;;;;;;5.53;2.15;;;;;;;10.89;55.77;103343.72;4949340;28;98014;-76
2021/12/18 01:51:18;;;;;;;5.18;2.40;;;;;;;11.01;56.08;103338.47;4953205;28;97190;-77
2021/12/18 01:53:45;;;;;;;4.97;2.45;;;;;;;10.85;56.67;103332.22;4948691;28;99261;-76
2021/12/18 01:56:11;;;;;;;4.85;2.40;;;;;;;10.96;56.48;103337.59;4970515;28;97501;-74
2021/12/18 01:58:38;;;;;;;3.55;2.28;;;;;;;11.00;56.61;103334.94;4970248;28;96769;-74
2021/12/18 02:01:06;;;;;;;3.88;2.45;;;;;;;11.19;56.04;103330.59;4963448;28;99427;-76
2021/12/18 02:03:34;;;;;;;5.53;2.47;;;;;;;11.34;55.31;103324.47;4964448;28;97958;-76
2021/12/18 02:06:00;;;;;;;2.70;2.13;;;;;;;11.48;54.83;103328.91;4955046;28;96961;-76
2021/12/18 02:08:29;;;;;;;2.75;2.33;;;;;;;11.42;55.01;103326.22;4957015;28;96952;-75
2021/12/18 02:11:00;;;;;;;3.92;2.65;;;;;;;11.40;55.21;103338.59;4954871;28;99318;-75
2021/12/18 02:13:40;;;;;;;3.15;2.40;;;;;;;10.89;56.49;103338.44;4960463;28;100012;-76
2021/12/18 02:21:40;;;;;;;6.37;2.70;;;;;;;11.02;56.79;103333.22;4924767;28;98007;-75
2021/12/18 02:24:07;;;;;;;3.60;2.85;;;;;;;11.08;56.27;103349.09;4954574;28;98977;-77
2021/12/18 02:26:34;;;;;;;3.60;2.50;;;;;;;10.23;58.81;103346.00;4955456;28;96806;-75
2021/12/18 02:29:03;;;;;;;4.72;2.55;;;;;;;10.91;56.72;103352.53;4952242;28;98554;-75
2021/12/18 02:31:30;;;;;;;5.72;2.35;;;;;;;11.17;55.77;103353.53;4954726;28;99358;-76
2021/12/18 02:33:57;;;;;;;5.55;2.88;;;;;;;11.01;56.44;103346.41;4955466;28;98677;-77
2021/12/18 02:36:25;;;;;;;3.20;2.50;;;;;;;10.92;55.69;103341.09;4948860;28;97246;-76
2021/12/18 02:39:07;;;;;;;2.95;2.40;;;;;;;10.91;56.89;103337.56;4961523;28;98686;-74
2021/12/18 02:41:37;;;;;;;5.25;3.17;;;;;;;11.33;55.51;103347.41;4968107;28;99067;-76
2021/12/18 02:44:06;;;;;;;3.13;2.35;;;;;;;11.47;55.51;103345.69;4957009;28;98068;-75
2021/12/18 02:46:33;;;;;;;6.05;2.13;;;;;;;10.48;57.12;103339.09;4961450;28;97316;-75
2021/12/18 02:49:06;;;;;;;2.85;2.00;;;;;;;10.92;57.01;103338.44;4948182;28;97093;-76
2021/12/18 02:51:33;;;;;;;4.63;2.10;;;;;;;11.08;56.36;103332.34;4951832;28;99545;-76
2021/12/18 02:54:00;;;;;;;3.78;2.50;;;;;;;11.06;56.92;103339.38;4953128;28;98844;-77
2021/12/18 02:56:27;;;;;;;3.75;2.75;;;;;;;10.74;57.63;103328.66;4955649;28;97887;-76
2021/12/18 02:59:04;;;;;;;5.97;3.45;;;;;;;10.66;57.69;103327.75;4951550;28;96831;-76
2021/12/18 03:01:32;;;;;;;7.30;3.08;;;;;;;10.91;57.77;103339.31;4952674;28;99625;-79
2021/12/18 03:04:01;;;;;;;4.47;3.00;;;;;;;11.23;57.03;103331.47;4958779;28;99342;-79
2021/12/18 03:06:32;;;;;;;6.47;3.60;;;;;;;10.89;57.36;103331.38;4948198;28;96838;-76
2021/12/18 03:09:13;;;;;;;9.07;3.78;;;;;;;11.37;56.33;103325.34;4955694;28;96764;-77
2021/12/18 03:20:52;;;;;;;4.95;2.75;;;;;;;11.53;55.17;103321.84;4947800;28;96775;-77
2021/12/18 03:23:10;;;;;;;4.78;3.17;;;;;;;11.63;55.44;103311.25;4947706;28;98976;-78
2021/12/18 03:25:39;;;;;;;4.90;3.42;;;;;;;11.47;55.47;103308.59;4953699;28;99187;-78
2021/12/18 03:28:06;;;;;;;6.35;3.00;;;;;;;11.37;55.92;103305.91;4952422;28;96846;-77
2021/12/18 03:30:34;;;;;;;5.18;3.08;;;;;;;11.32;56.09;103305.03;4955241;28;96956;-76
2021/12/18 03:33:01;;;;;;;8.05;3.50;;;;;;;11.34;55.91;103303.28;4950699;28;98921;-76
2021/12/18 03:35:27;;;;;;;7.50;3.13;;;;;;;11.12;56.60;103297.06;4957746;28;99155;-77
2021/12/18 03:37:54;;;;;;;5.40;4.00;;;;;;;11.31;56.01;103298.84;4956861;28;96832;-77
2021/12/18 03:40:23;;;;;;;5.35;3.10;;;;;;;11.25;56.42;103297.97;4949130;28;97090;-76
2021/12/18 03:42:51;;;;;;;3.80;3.33;;;;;;;11.25;56.32;103298.84;4953814;28;97873;-75
2021/12/18 03:45:19;;;;;;;4.97;3.45;;;;;;;11.21;56.69;103294.44;4954688;28;99217;-75
2021/12/18 03:47:47;;;;;;;4.88;3.55;;;;;;;11.15;56.23;103292.66;4948514;28;96818;-75
2021/12/18 03:50:14;;;;;;;5.25;3.30;;;;;;;11.27;56.37;103283.88;4954121;28;96909;-76
2021/12/18 03:52:40;;;;;;;5.10;3.60;;;;;;;11.28;56.38;103284.75;4960501;28;99195;-76
2021/12/18 03:55:08;;;;;;;4.90;3.53;;;;;;;11.45;55.70;103298.88;4975014;28;97788;-76
2021/12/18 03:57:34;;;;;;;5.68;3.85;;;;;;;11.26;55.78;103294.44;4973251;28;96942;-74
2021/12/18 04:00:02;;;;;;;4.80;3.60;;;;;;;11.38;55.80;103287.41;4955951;28;96814;-75
2021/12/18 04:02:28;;;;;;;7.63;3.72;;;;;;;10.75;56.73;103298.72;4951468;28;99354;-76
2021/12/18 04:04:55;;;;;;;7.72;4.10;;;;;;;10.77;58.23;103295.16;4951656;28;99164;-75
2021/12/18 04:07:21;;;;;;;7.57;3.83;;;;;;;11.09;57.45;103291.78;4954578;28;96925;-75
2021/12/18 04:09:48;;;;;;;8.18;4.13;;;;;;;10.83;57.29;103296.09;4961366;28;97094;-76
2021/12/18 04:12:15;;;;;;;5.63;4.20;;;;;;;10.91;57.95;103296.97;4953656;28;98929;-77
2021/12/18 04:14:41;;;;;;;4.70;3.35;;;;;;;11.15;56.65;103297.06;4959929;28;98949;-75
2021/12/18 04:17:09;;;;;;;5.47;3.53;;;;;;;11.30;55.75;103298.84;4959046;28;96755;-76
2021/12/18 04:19:36;;;;;;;6.50;3.88;;;;;;;11.13;57.01;103293.53;4958456;28;97300;-75
2021/12/18 04:22:03;;;;;;;6.72;3.67;;;;;;;11.47;56.21;103297.13;4957279;28;99111;-75
2021/12/18 04:24:29;;;;;;;5.20;4.00;;;;;;;11.30;56.20;103297.09;4954773;28;98962;-75
2021/12/18 04:26:56;;;;;;;5.22;3.50;;;;;;;10.98;56.84;103301.41;4949618;28;96894;-76
2021/12/18 04:29:22;;;;;;;6.70;3.85;;;;;;;10.91;57.92;103299.63;4950525;28;96972;-75
2021/12/18 04:31:49;;;;;;;4.50;3.25;;;;;;;11.05;57.89;103303.22;4957061;28;98949;-77
2021/12/18 04:34:17;;;;;;;6.57;4.22;;;;;;;10.92;57.62;103297.00;4958939;28;99217;-77
2021/12/18 04:36:43;;;;;;;6.68;4.25;;;;;;;11.25;56.48;103296.19;4959200;28;96796;-77
2021/12/18 04:39:11;;;;;;;6.95;3.80;;;;;;;11.19;56.66;103293.53;4957685;28;96926;-76
2021/12/18 04:41:41;;;;;;;4.22;3.30;;;;;;;11.38;56.56;103298.00;4948139;28;99247;-77
2021/12/18 04:44:08;;;;;;;5.05;3.38;;;;;;;10.98;56.45;103288.19;4959749;28;99986;-77
2021/12/18 04:46:35;;;;;;;5.35;3.22;;;;;;;11.12;56.86;103286.47;4957082;28;98372;-77
2021/12/18 04:49:01;;;;;;;3.85;3.00;;;;;;;11.13;57.06;103291.78;4955927;28;98634;-77
2021/12/18 04:51:29;;;;;;;4.68;2.90;;;;;;;11.13;56.61;103288.25;4954838;28;97835;-77
2021/12/18 04:53:56;;;;;;;4.90;3.35;;;;;;;10.75;57.75;103296.06;4954889;28;101270;-76
2021/12/18 04:56:22;;;;;;;3.80;2.70;;;;;;;11.02;57.54;103287.34;4955526;28;96784;-76
2021/12/18 04:58:49;;;;;;;4.95;3.33;;;;;;;10.95;58.08;103282.91;4957077;28;96804;-76
2021/12/18 05:01:16;;;;;;;3.28;2.92;;;;;;;11.21;57.97;103281.22;4955895;28;99212;-76
2021/12/18 05:03:44;;;;;;;6.65;3.50;;;;;;;11.16;57.17;103282.94;4954397;28;99616;-76
2021/12/18 05:06:10;;;;;;;5.70;2.83;;;;;;;11.34;57.53;103277.69;4954104;28;97376;-76
2021/12/18 05:08:38;;;;;;;5.20;2.83;;;;;;;11.28;57.55;103274.16;4947513;28;98688;-77
2021/12/18 05:11:05;;;;;;;4.38;3.08;;;;;;;11.36;57.13;103281.22;4953080;28;99237;-77
2021/12/18 05:13:31;;;;;;;4.80;2.88;;;;;;;11.12;58.28;103281.19;4956696;28;98676;-76
2021/12/18 05:15:58;;;;;;;5.63;3.20;;;;;;;11.33;57.24;103286.53;4954688;28;96811;-76
2021/12/18 05:18:24;;;;;;;5.10;3.25;;;;;;;11.05;57.89;103287.31;4956071;28;97052;-76
2021/12/18 05:20:51;;;;;;;3.92;3.00;;;;;;;11.25;58.08;103279.44;4951736;28;98983;-76
2021/12/18 05:23:17;;;;;;;5.88;3.15;;;;;;;11.34;57.63;103288.28;4954091;28;98157;-75
2021/12/18 05:25:45;;;;;;;6.60;3.42;;;;;;;11.54;56.60;103286.56;4955784;28;96737;-76
2021/12/18 05:28:12;;;;;;;3.45;2.63;;;;;;;11.46;57.28;103288.31;4957929;28;96958;-75
2021/12/18 05:30:38;;;;;;;6.85;3.47;;;;;;;11.46;57.81;103279.47;4956406;28;98940;-79
2021/12/18 05:33:04;;;;;;;4.28;2.85;;;;;;;11.47;57.39;103286.53;4959191;28;98834;-76
2021/12/18 05:35:31;;;;;;;3.50;2.80;;;;;;;11.15;57.57;103275.91;4953642;28;97792;-75
2021/12/18 05:38:04;;;;;;;4.40;2.67;;;;;;;11.14;58.37;103276.78;4960921;28;96992;-76
2021/12/18 05:40:33;;;;;;;4.97;3.10;;;;;;;10.53;59.77;103279.22;4956835;28;99460;-79
2021/12/18 05:43:01;;;;;;;5.50;3.25;;;;;;;10.64;59.64;103273.94;4952507;28;99134;-76
2021/12/18 05:45:27;;;;;;;6.57;3.13;;;;;;;10.73;59.09;103274.00;4961097;28;96746;-77
2021/12/18 05:47:53;;;;;;;3.45;2.80;;;;;;;10.76;60.23;103271.38;4955185;28;98526;-76
2021/12/18 05:50:22;;;;;;;4.68;3.03;;;;;;;11.13;59.26;103282.94;4956778;28;99226;-77
2021/12/18 05:52:49;;;;;;;4.82;3.17;;;;;;;11.13;58.75;103280.31;4967446;28;99097;-75
2021/12/18 05:55:16;;;;;;;4.90;3.35;;;;;;;11.55;57.29;103285.66;4956640;28;97378;-75
2021/12/18 05:57:42;;;;;;;6.70;3.60;;;;;;;11.46;57.77;103283.00;4952680;28;97430;-78
2021/12/18 06:00:12;;;;;;;4.80;3.45;;;;;;;11.32;58.40;103289.16;4952893;28;99396;-76
2021/12/18 06:02:39;;;;;;;5.85;3.90;;;;;;;11.44;58.66;103279.47;4955459;28;99405;-75
2021/12/18 06:05:07;;;;;;;6.07;3.33;;;;;;;11.34;58.39;103282.13;4951752;28;97070;-75
2021/12/18 06:07:43;;;;;;;5.50;3.35;;;;;;;10.95;59.28;103275.84;4962448;28;96997;-76
2021/12/18 06:10:10;;;;;;;5.07;3.80;;;;;;;10.82;58.38;103268.75;4962218;28;98813;-76
2021/12/18 06:12:36;;;;;;;3.90;3.03;;;;;;;10.25;61.11;103264.94;4966237;28;99289;-76
2021/12/18 06:15:03;;;;;;;6.95;3.25;;;;;;;10.79;59.99;103269.63;4954409;28;96779;-76
2021/12/18 06:17:31;;;;;;;6.45;3.50;;;;;;;10.89;60.13;103267.03;4957148;28;97202;-77
2021/12/18 06:19:57;;;;;;;4.40;3.20;;;;;;;10.64;60.36;103279.25;4952082;28;98936;-76
2021/12/18 06:22:23;;;;;;;6.25;3.60;;;;;;;10.20;61.38;103258.75;4953698;28;97656;-75
2021/12/18 06:24:50;;;;;;;4.63;3.35;;;;;;;10.38;61.97;103260.63;4949930;28;96905;-76
2021/12/18 06:27:16;;;;;;;5.45;3.67;;;;;;;10.43;61.16;103256.25;4958153;28;96863;-76
2021/12/18 06:29:43;;;;;;;4.25;3.33;;;;;;;10.58;60.38;103256.31;4952456;28;99260;-76
2021/12/18 06:32:10;;;;;;;5.57;3.22;;;;;;;10.74;60.37;103257.25;4958797;28;98862;-76
2021/12/18 06:34:37;;;;;;;4.55;3.30;;;;;;;10.56;60.69;103258.09;4951484;28;97079;-75
2021/12/18 06:37:04;;;;;;;5.07;3.40;;;;;;;10.29;61.75;103253.53;4945145;28;97118;-75
2021/12/18 06:39:31;;;;;;;5.60;3.05;;;;;;;10.71;60.55;103252.84;4953428;28;98974;-75
2021/12/18 06:41:57;;;;;;;4.38;3.42;;;;;;;10.94;59.47;103255.56;4962868;28;98886;-75
2021/12/18 06:44:23;;;;;;;4.28;3.25;;;;;;;10.97;59.41;103257.31;4955969;28;96849;-76
2021/12/18 06:46:50;;;;;;;3.72;3.20;;;;;;;11.21;58.86;103249.44;4963049;28;96739;-75
2021/12/18 06:49:16;;;;;;;4.38;3.25;;;;;;;11.23;58.33;103258.25;4952237;28;99104;-74
2021/12/18 06:51:44;;;;;;;4.18;3.05;;;;;;;10.83;59.20;103240.56;4957810;28;98862;-75
2021/12/18 06:54:11;;;;;;;3.08;2.38;;;;;;;10.69;59.92;103249.31;4959341;28;97024;-77
2021/12/18 06:56:37;;;;;;;3.20;2.50;;;;;;;10.86;59.22;103252.00;4957278;28;96810;-78
2021/12/18 06:59:04;;;;;;;3.90;2.72;;;;;;;10.42;60.51;103249.19;4957192;28;97869;-77
2021/12/18 07:01:30;;;;;;;4.63;2.70;;;;;;;10.57;60.31;103243.97;4951889;28;98841;-78
2021/12/18 07:03:57;;;;;;;3.08;2.28;;;;;;;10.58;60.06;103237.81;4952233;28;97012;-80
2021/12/18 07:06:24;;;;;;;2.95;2.47;;;;;;;10.89;59.58;103243.22;4955942;28;96947;-77
2021/12/18 07:08:52;;;;;;;3.80;2.45;;;;;;;10.91;59.09;103238.78;4955883;28;99502;-78
2021/12/18 07:11:19;;;;;;;3.40;2.55;;;;;;;10.48;60.18;103243.94;4951850;28;98832;-77
2021/12/18 07:13:45;;;;;;;2.72;2.28;;;;;;;11.04;58.97;103235.28;4963311;28;96831;-78
2021/12/18 07:16:12;;;;;;;3.72;2.83;;;;;;;10.68;60.63;103244.03;4958452;28;97287;-78
2021/12/18 07:18:38;;;;;;;3.40;2.72;;;;;;;11.32;58.59;103244.16;4947994;28;99178;-77
2021/12/18 07:21:05;;;;;;;3.13;2.70;;;;;;;11.09;58.63;103238.84;4959629;28;99055;-76
2021/12/18 07:23:32;;;;;;;4.53;3.10;;;;;;;10.34;60.95;103232.41;4955005;28;96997;-76
2021/12/18 07:26:00;;;;;;;3.60;3.30;;;;;;;10.68;60.75;103229.03;4955413;28;96853;-78
2021/12/18 07:28:27;;;;;;;3.75;3.03;;;;;;;9.97;62.54;103231.31;4961148;28;99131;-77
2021/12/18 07:30:55;;;;;;;5.85;3.30;;;;;;;10.54;61.83;103230.75;4955688;28;99637;-78
2021/12/18 07:33:22;;;;;;;5.40;3.60;;;;;;;10.95;60.08;103224.72;4953797;28;96856;-80
2021/12/18 07:35:49;;;;;;;5.70;4.28;;;;;;;11.16;59.14;103230.00;4946128;28;97323;-79
2021/12/18 07:38:19;;;;;;;7.55;3.67;;;;;;;10.42;61.43;103230.69;4949446;28;98952;-78
2021/12/18 07:40:54;;;;;;;5.63;3.78;;;;;;;10.78;60.61;103228.19;4951762;28;99376;-82
2021/12/18 07:43:55;;;;;;;;;;;;;;;;;;;;;
2021/12/18 07:46:23;;;;;;;5.80;3.45;;;;;;;10.96;59.61;103221.19;4948267;28;114345;-78
2021/12/18 07:48:50;;;;;;;4.30;3.47;;;;;;;10.52;60.29;103221.03;4952819;28;99420;-79
2021/12/18 07:51:19;;;;;;;5.45;3.67;;;;;;;10.73;60.76;103227.28;4951897;28;99287;-78
2021/12/18 07:54:18;;;;;;;;;;;;;;;;;;;;;
2021/12/18 07:56:44;;;;;;;4.57;3.90;;;;;;;11.05;59.30;103211.47;4947263;28;112566;-79
2021/12/18 07:59:16;;;;;;;7.28;4.97;;;;;;;11.06;59.60;103210.59;4952827;28;97191;-81
2021/12/18 08:01:42;;;;;;;6.68;4.40;;;;;;;10.55;61.01;103200.78;4949344;28;99009;-76
2021/12/18 08:04:09;;;;;;;5.82;4.07;;;;;;;10.73;60.64;103197.31;4947404;28;97870;-76
2021/12/18 08:06:36;;;;;;;5.97;4.18;;;;;;;10.71;60.60;103199.94;4952129;28;96942;-77
2021/12/18 08:09:02;;;;;;;5.65;3.95;;;;;;;10.66;60.93;103196.41;4950568;28;98849;-77
2021/12/18 08:11:29;;;;;;;5.25;3.75;;;;;;;10.81;60.42;103195.56;4950472;28;98397;-77
2021/12/18 08:13:55;;;;;;;4.88;3.67;;;;;;;11.07;59.55;103192.97;4950439;28;97329;-76
2021/12/18 08:16:23;;;;;;;4.63;3.45;;;;;;;10.96;59.76;103194.72;4947563;28;99145;-76
2021/12/18 08:22:51;;;;;;;4.20;3.25;;;;;;;10.65;60.76;103202.56;4946615;28;96919;-80
2021/12/18 08:26:03;;;;;;;;;;;;;;;;;;;;;
2021/12/18 08:28:37;;;;;;;3.53;2.50;;;;;;;10.51;60.11;103201.63;4842985;29;113446;-79
2021/12/18 08:31:34;;;;;;;2.40;1.80;;;;;;;9.25;61.21;103192.94;4920356;28;99320;-77
2021/12/18 08:34:19;;;;;;;2.33;1.90;;;;;;;9.53;62.64;103200.16;4840615;29;98062;-76
2021/12/18 08:37:40;;;;;;;;;;;;;;;;;;;;;
2021/12/18 08:40:36;;;;;;;1.85;1.35;;;;;;;10.67;58.10;103192.91;4928721;28;112996;-79
2021/12/18 08:43:23;;;;;;;;;;;;;;;;;;;;;
2021/12/18 08:46:31;;;;;;;;;;;;;;;;;;;;;
2021/12/18 08:49:38;;;;;;;;;;;;;;;;;;;;;
2021/12/18 08:52:59;;;;;;;;;;;;;;;;;;;;;
2021/12/18 08:56:17;;;;;;;;;;;;;;;;;;;;;
2021/12/18 08:59:39;;;;;;;;;;;;;;;;;;;;;
2021/12/18 09:02:47;;;;;;;;;;;;;;;;;;;;;
2021/12/18 09:05:34;;;;;;;;;;;;;;;;;;;;;
2021/12/18 09:08:01;;;;;;;4.30;3.13;;;;;;;11.26;57.13;103202.69;4954836;28;128673;-80
2021/12/18 09:10:27;;;;;;;3.47;2.40;;;;;;;10.44;58.47;103191.03;4965985;28;98914;-80
2021/12/18 09:12:59;;;;;;;4.30;2.70;;;;;;;10.54;60.52;103193.72;4957118;28;97877;-77
2021/12/18 09:15:29;;;;;;;5.22;3.50;;;;;;;11.02;59.14;103194.75;4954030;28;97030;-76
2021/12/18 09:18:31;;;;;;;;;;;;;;;;;;;;;
2021/12/18 09:21:24;;;;;;;4.28;3.00;;;;;;;11.19;58.03;103192.97;4953519;28;124761;-80
2021/12/18 09:28:02;;;;;;;;;;;;;;;;;;;;;
2021/12/18 09:34:33;;;;;;;;;;;;;;;;;;;;;
2021/12/18 09:37:40;;;;;;;;;;;;;;;;;;;;;
2021/12/18 09:44:26;;;;;;;;;;;;;;;;;;;;;
2021/12/18 09:46:53;;;;;;;8.88;4.80;;;;;;;11.49;58.38;103171.78;4868061;28;98408;-78
2021/12/18 09:49:20;;;;;;;7.55;4.75;;;;;;;11.49;58.29;103155.00;4985427;28;96934;-78
2021/12/18 09:51:47;;;;;;;6.53;3.95;;;;;;;11.62;58.52;103163.84;4984389;28;98388;-78
2021/12/18 09:54:13;;;;;;;8.88;3.70;;;;;;;11.30;59.76;103156.81;4983849;28;99296;-78
2021/12/18 09:56:40;;;;;;;6.20;4.18;;;;;;;11.19;60.22;103155.94;4958147;28;97732;-77
2021/12/18 09:59:07;;;;;;;8.07;4.80;;;;;;;11.56;59.30;103152.38;4983416;28;96645;-77
2021/12/18 10:01:34;;;;;;;6.57;4.68;;;;;;;11.46;59.01;103155.94;4992861;28;96915;-77
2021/12/18 10:04:04;;;;;;;5.93;3.78;;;;;;;11.36;59.89;103148.84;4977374;28;100226;-78
2021/12/18 10:06:40;;;;;;;9.52;4.80;;;;;;;11.06;59.64;103157.69;4985802;28;98870;-78
2021/12/18 10:09:08;;;;;;;13.20;5.03;;;;;;;11.04;60.11;103154.16;4977239;28;96874;-78
2021/12/18 10:11:44;;;;;;;7.13;4.22;;;;;;;11.24;59.51;103143.56;4987604;28;96976;-78
2021/12/18 10:14:10;;;;;;;6.28;3.97;;;;;;;10.84;61.73;103141.78;4987157;28;98882;-78
2021/12/18 10:16:43;;;;;;;7.45;4.10;;;;;;;11.36;60.47;103137.38;4982768;28;98763;-79
2021/12/18 10:19:25;;;;;;;8.82;4.32;;;;;;;11.53;59.69;103131.19;4970297;28;96816;-78
2021/12/18 10:21:55;;;;;;;12.20;6.30;;;;;;;11.55;59.97;103134.72;4968960;28;97396;-77
2021/12/18 10:24:22;;;;;;;5.15;3.63;;;;;;;11.71;59.02;103132.91;4977955;28;99197;-77
2021/12/18 10:26:51;;;;;;;5.25;2.83;;;;;;;11.82;58.51;103138.22;4980158;28;99011;-79
2021/12/18 10:29:27;;;;;;;7.45;4.43;;;;;;;11.98;58.21;103118.75;4974730;28;96902;-78
2021/12/18 10:31:54;;;;;;;5.22;3.28;;;;;;;11.18;58.90;103119.75;4978497;28;97011;-79
2021/12/18 10:34:24;;;;;;;5.47;3.03;;;;;;;11.11;60.23;103124.16;4981005;28;99002;-77
2021/12/18 10:37:10;;;;;;;5.57;2.97;;;;;;;11.54;59.57;103125.03;4978229;28;100601;-78
2021/12/18 10:39:38;;;;;;;3.88;2.78;;;;;;;11.32;59.88;103117.09;4972551;28;96793;-77
2021/12/18 10:42:29;;;;;;;;;;;;;;;;;;;;;
2021/12/18 10:45:05;;;;;;;4.18;2.42;;;;;;;10.99;60.56;103104.78;4978223;28;125173;-78
2021/12/18 10:48:00;;;;;;;3.93;2.33;;;;;;;11.23;59.77;103088.88;4976069;28;98905;-78
2021/12/18 10:50:53;;;;;;;4.85;2.88;;;;;;;11.40;59.52;103091.50;4971733;28;96744;-77
2021/12/18 10:53:31;;;;;;;;;;;;;;;;;;;;;
2021/12/18 10:56:16;;;;;;;4.30;2.90;;;;;;;11.40;59.57;103081.81;4976086;28;128433;-77
2021/12/18 10:59:11;;;;;;;5.70;2.30;;;;;;;11.43;58.73;103081.78;4981229;28;101039;-77
2021/12/18 11:01:50;;;;;;;4.38;2.80;;;;;;;11.87;58.39;103073.75;4965893;28;96810;-78
2021/12/18 11:04:49;;;;;;;7.20;3.30;;;;;;;11.51;57.85;103060.59;4985946;28;97421;-78
2021/12/18 11:07:47;;;;;;;6.35;3.67;;;;;;;11.67;58.98;103061.44;4976577;28;97409;-78
2021/12/18 11:10:42;;;;;;;5.32;3.38;;;;;;;11.82;57.02;103056.09;4970030;28;98766;-78
2021/12/18 11:15:58;;;;;;;7.93;3.80;;;;;;;11.35;59.41;103043.00;4987761;28;96702;-79
2021/12/18 11:18:49;;;;;;;7.15;3.80;;;;;;;11.47;59.41;103051.78;4972480;28;99945;-79
2021/12/18 11:21:18;;;;;;;8.40;3.70;;;;;;;11.62;59.62;103045.53;4981098;28;97891;-77
2021/12/18 11:24:00;;;;;;;7.95;3.60;;;;;;;11.62;58.61;103040.25;4982827;28;96853;-77
2021/12/18 11:26:34;;;;;;;6.07;3.65;;;;;;;11.67;59.40;103038.47;4975168;28;96864;-77
2021/12/18 11:29:09;;;;;;;7.45;4.45;;;;;;;11.41;60.16;103040.34;4980909;28;99336;-77
2021/12/18 11:31:39;;;;;;;7.38;3.83;;;;;;;11.55;59.57;103036.72;4985535;28;98016;-78
2021/12/18 11:34:21;;;;;;;5.35;3.05;;;;;;;11.77;59.27;103042.00;4987040;28;96933;-78
2021/12/18 11:36:51;;;;;;;5.22;2.70;;;;;;;11.69;59.11;103030.50;4986333;28;97220;-78
2021/12/18 11:39:28;;;;;;;5.13;2.63;;;;;;;11.49;58.59;103026.16;4979408;28;98911;-78
2021/12/18 11:42:03;;;;;;;2.92;2.22;;;;;;;11.30;58.90;103026.22;4989947;28;99356;-78
2021/12/18 11:44:41;;;;;;;3.00;1.85;;;;;;;11.47;59.17;103025.31;4979320;28;97331;-79
2021/12/18 11:47:40;;;;;;;;;;;;;;;;;;;;;
2021/12/18 11:50:26;;;;;;;5.55;2.33;;;;;;;11.50;58.73;103017.34;4999200;28;127363;-77
2021/12/18 11:52:58;;;;;;;2.80;1.73;;;;;;;10.98;61.14;103007.75;5002847;28;97633;-76
2021/12/18 11:55:27;;;;;;;4.90;2.28;;;;;;;11.67;58.97;103013.75;4989459;28;96865;-78
2021/12/18 11:58:00;;;;;;;3.42;2.00;;;;;;;11.95;57.93;103005.69;4995473;28;96633;-77
2021/12/18 12:00:59;;;;;;;4.30;1.70;;;;;;;11.41;58.47;103008.56;4995846;28;98252;-77
2021/12/18 12:03:38;;;;;;;4.38;1.65;;;;;;;11.27;59.16;102999.78;4990233;28;100864;-77
2021/12/18 12:06:24;;;;;;;2.80;1.83;;;;;;;11.01;59.76;102999.84;4981727;28;96708;-78
2021/12/18 12:09:22;;;;;;;4.35;1.92;;;;;;;11.38;58.87;103001.50;4975025;28;96741;-78
2021/12/18 12:11:55;;;;;;;1.95;1.20;;;;;;;11.52;58.16;103001.47;4984498;28;100802;-78
2021/12/18 12:14:29;;;;;;;3.63;1.92;;;;;;;11.65;57.70;102994.34;4984668;28;101309;-78
2021/12/18 12:17:21;;;;;;;2.35;1.40;;;;;;;11.66;58.61;102994.34;4983884;28;96795;-79
2021/12/18 12:20:00;;;;;;;2.88;1.40;;;;;;;11.39;59.02;102981.22;4981332;28;96865;-80
2021/12/18 12:22:47;;;;;;;4.95;1.65;;;;;;;11.71;58.50;102976.66;4976218;28;101807;-82
2021/12/18 12:25:36;;;;;;;;;;;;;;;12.15;57.28;102973.78;4978429;28;97518;-79
2021/12/18 12:28:06;;;;;;;1.75;1.20;;;;;;;12.33;56.80;102968.38;4983732;28;96797;-79
2021/12/18 12:30:42;;;;;;;2.53;1.50;;;;;;;12.22;57.23;102971.97;4988157;28;97194;-78
2021/12/18 12:33:10;;;;;;;;;;;;;;;12.30;56.87;102957.75;4985276;28;99739;-77
2021/12/18 12:35:57;;;;;;;4.65;1.88;;;;;;;12.04;57.63;102964.13;4983612;28;97738;-78
2021/12/18 12:38:41;;;;;;;;;;;;;;;;;;;;;
2021/12/18 12:41:38;;;;;;;3.42;1.75;;;;;;;11.69;57.88;102946.63;4983353;28;112966;-76
2021/12/18 12:44:15;;;;;;;2.15;1.40;;;;;;;11.63;60.00;102938.72;4988649;28;99177;-78
2021/12/18 12:46:47;;;;;;;1.65;1.30;;;;;;;11.86;58.67;102934.22;4985801;28;101190;-78
2021/12/18 12:49:37;;;;;;;2.63;1.73;;;;;;;12.01;58.69;102922.66;4967271;28;97445;-78
2021/12/18 12:52:11;;;;;;;2.05;1.27;;;;;;;11.72;58.80;102919.28;4971569;28;96983;-77
2021/12/18 12:55:03;;;;;;;5.10;2.20;;;;;;;11.33;59.83;102915.94;4984821;28;97987;-78
2021/12/18 12:57:44;;;;;;;3.88;1.50;;;;;;;11.54;60.13;102909.66;4986527;28;98939;-78
2021/12/18 13:00:50;;;;;;;3.63;1.50;;;;;;;12.19;58.21;102905.72;4978448;28;97157;-78
2021/12/18 13:03:27;;;;;;;2.05;1.58;;;;;;;11.91;59.06;102905.06;4994018;28;96787;-78
2021/12/18 13:06:24;;;;;;;;;;;;;;;;;;;;;